East Templeton, Massachusetts
Current Conditions -  °F | °C
As of 4:52 PM on Friday 31 Oct 2014 (Local Time) from KORE Reporting Station
Overcast Overcast  
Wind Chill: 47°   Ceiling: 3700
Heat Index: 49°   Visibility: 10mi
Dew Point: 36°   Wind: 6mph
Humidity: 61%   Direction: 80°E
Pressure: 29.96"   Gusts: NA
Location:  42.56°N, 72.04°W
Report Text: KORE 312052Z AUTO 08005KT 10SM BKN037 OVC044 09/02 A2996 RMK AO2 SLP151 T00940022 55001
Loading
Personal Weather Stations






























Interactive Weather Map
Tropical Storm Tracking
New forecast layout! Learn more

10-Day Weather Forecast

Advertisements
Track Severe Weather on mobile